Time;durP1;ratioP1;P1;durP2;ratioP2;P2;SDS_P1;SDS_P2;PMS_P1;PMS_P2;Temp;Humidity;BMP_temperature;BMP_pressure;BME280_temperature;BME280_humidity;BME280_pressure;Samples;Min_cycle;Max_cycle;Signal;HPM_P1;HPM_P2
2022/04/28 00:01:38;;;;;;;42.70;34.50;;;30.50;97.70;;;;;;4202155;28;20041;-71
2022/04/28 00:03:46;;;;;;;45.60;33.83;;;30.50;97.80;;;;;;4201361;28;20076;-72
2022/04/28 00:05:50;;;;;;;43.00;33.17;;;30.50;97.90;;;;;;4203185;28;20078;-72
2022/04/28 00:07:55;;;;;;;45.35;33.80;;;30.50;97.90;;;;;;4200912;28;20045;-72
2022/04/28 00:10:04;;;;;;;44.78;34.53;;;30.60;97.90;;;;;;4203612;28;20055;-71
2022/04/28 00:12:10;;;;;;;47.05;33.88;;;30.70;97.60;;;;;;4203991;28;20097;-73
2022/04/28 00:14:16;;;;;;;41.72;33.55;;;30.70;97.40;;;;;;4203569;28;20040;-72
2022/04/28 00:16:25;;;;;;;40.28;32.67;;;30.80;97.20;;;;;;4200015;28;20711;-73
2022/04/28 00:18:30;;;;;;;40.58;32.10;;;30.90;97.10;;;;;;4203678;28;20059;-72
2022/04/28 00:20:37;;;;;;;44.00;35.03;;;31.00;97.10;;;;;;4202555;28;20044;-69
2022/04/28 00:22:45;;;;;;;41.58;33.05;;;31.00;96.90;;;;;;4203612;28;20052;-72
2022/04/28 00:24:50;;;;;;;40.47;32.38;;;31.00;96.90;;;;;;4203365;28;20051;-72
2022/04/28 00:26:54;;;;;;;41.63;31.55;;;31.10;96.90;;;;;;4204883;28;20051;-71
2022/04/28 00:29:03;;;;;;;38.42;31.27;;;31.10;96.80;;;;;;4202456;28;20151;-72
2022/04/28 00:31:08;;;;;;;41.97;31.33;;;31.20;96.80;;;;;;4200996;28;20048;-72
2022/04/28 00:33:13;;;;;;;40.85;31.52;;;31.20;96.80;;;;;;4203018;28;20044;-72
2022/04/28 00:35:17;;;;;;;41.05;31.80;;;31.30;96.50;;;;;;4202876;28;20080;-72
2022/04/28 00:37:22;;;;;;;37.67;31.55;;;31.30;96.60;;;;;;4202197;28;20052;-71
2022/04/28 00:39:26;;;;;;;47.65;33.00;;;31.40;96.80;;;;;;4202559;28;20062;-71
2022/04/28 00:41:33;;;;;;;37.50;32.22;;;31.40;96.80;;;;;;4202425;28;20510;-71
2022/04/28 00:43:51;;;;;;;40.13;31.58;;;31.40;96.80;;;;;;4189721;28;20051;-72
2022/04/28 00:45:56;;;;;;;40.67;32.20;;;31.50;96.80;;;;;;4197825;28;20040;-71
2022/04/28 00:52:39;;;;;;;40.83;31.33;;;31.60;96.70;;;;;;4200117;28;20440;-73
2022/04/28 00:54:49;;;;;;;38.92;29.33;;;31.70;96.70;;;;;;4184165;28;20049;-70
2022/04/28 00:56:54;;;;;;;36.80;29.98;;;31.70;96.70;;;;;;4195665;28;20044;-71
2022/04/28 00:59:02;;;;;;;46.15;38.53;;;31.80;96.70;;;;;;4200503;28;20036;-71
2022/04/28 01:01:08;;;;;;;45.25;36.00;;;31.90;96.70;;;;;;4200205;28;20120;-70
2022/04/28 01:03:13;;;;;;;47.95;35.25;;;31.90;96.90;;;;;;4185216;28;20043;-72
2022/04/28 01:05:18;;;;;;;41.50;34.38;;;31.90;96.90;;;;;;4177697;28;20725;-70
2022/04/28 01:07:24;;;;;;;44.47;34.42;;;32.00;96.70;;;;;;4161239;28;20113;-72
2022/04/28 01:09:29;;;;;;;39.97;31.48;;;32.00;96.70;;;;;;4173830;28;20068;-71
2022/04/28 01:11:34;;;;;;;37.33;31.83;;;32.10;96.80;;;;;;4191124;28;20045;-71
2022/04/28 01:13:52;;;;;;;42.05;31.17;;;32.10;96.70;;;;;;4194973;28;20048;-70
2022/04/28 01:16:04;;;;;;;36.22;28.85;;;32.20;96.70;;;;;;4193264;28;20037;-69
2022/04/28 01:18:10;;;;;;;34.58;28.70;;;32.20;96.60;;;;;;4194238;28;20048;-70
2022/04/28 01:20:19;;;;;;;35.38;28.52;;;32.30;96.40;;;;;;4191882;28;20899;-69
2022/04/28 01:22:24;;;;;;;35.72;28.65;;;32.30;96.30;;;;;;4190997;28;20045;-70
2022/04/28 01:24:31;;;;;;;34.05;28.05;;;32.30;96.20;;;;;;4181744;28;20041;-70
2022/04/28 01:26:39;;;;;;;35.00;28.90;;;32.40;96.20;;;;;;4194450;28;20048;-69
2022/04/28 01:28:44;;;;;;;39.90;28.92;;;32.40;96.20;;;;;;4190748;28;20052;-69
2022/04/28 01:30:49;;;;;;;35.63;27.88;;;32.50;96.20;;;;;;4173639;28;20053;-70
2022/04/28 01:32:58;;;;;;;37.25;29.45;;;32.50;96.10;;;;;;4175623;28;20483;-70
2022/04/28 01:35:03;;;;;;;40.92;28.33;;;32.50;96.00;;;;;;4178052;28;20052;-71
2022/04/28 01:37:08;;;;;;;33.38;27.27;;;32.50;95.90;;;;;;4195725;28;20079;-69
2022/04/28 01:39:16;;;;;;;34.70;27.75;;;32.60;96.00;;;;;;4185593;28;20091;-69
2022/04/28 01:41:21;;;;;;;37.10;28.38;;;32.60;95.90;;;;;;4185540;28;20049;-71
2022/04/28 01:43:26;;;;;;;33.10;28.00;;;32.60;95.60;;;;;;4185092;28;20064;-71
2022/04/28 01:45:32;;;;;;;34.65;28.65;;;32.70;95.40;;;;;;4204467;28;20082;-71
2022/04/28 01:47:56;;;;;;;37.33;29.08;;;32.70;95.30;;;;;;4198508;28;20105;-71
2022/04/28 01:50:13;;;;;;;35.00;27.50;;;32.80;95.30;;;;;;4195269;28;20037;-71
2022/04/28 01:55:03;;;;;;;38.17;27.38;;;32.90;95.40;;;;;;4193440;28;20079;-71
2022/04/28 01:57:29;;;;;;;30.70;25.95;;;32.90;95.30;;;;;;4202658;28;20487;-71
2022/04/28 01:59:50;;;;;;;35.78;27.08;;;32.90;95.40;;;;;;4202004;28;20048;-71
2022/04/28 02:02:14;;;;;;;33.22;26.23;;;33.00;95.30;;;;;;4200358;28;20071;-71
2022/04/28 02:04:20;;;;;;;32.97;26.77;;;33.00;95.20;;;;;;4195122;28;20711;-70
2022/04/28 02:06:29;;;;;;;32.65;27.48;;;33.00;95.10;;;;;;4191987;28;20044;-71
2022/04/28 02:08:34;;;;;;;29.35;26.23;;;33.00;95.30;;;;;;4200340;28;20040;-74
2022/04/28 02:10:39;;;;;;;31.00;26.10;;;33.10;95.30;;;;;;4198058;28;20080;-74
2022/04/28 02:13:01;;;;;;;28.25;24.77;;;33.10;95.30;;;;;;4188840;28;20041;-72
2022/04/28 02:15:09;;;;;;;32.78;26.10;;;33.20;95.30;;;;;;4193109;28;20155;-73
2022/04/28 02:17:29;;;;;;;32.92;24.90;;;33.20;95.30;;;;;;4203844;28;20052;-73
2022/04/28 02:19:37;;;;;;;31.02;23.38;;;33.20;95.20;;;;;;4187923;28;20065;-72
2022/04/28 02:21:42;;;;;;;31.52;25.00;;;33.20;95.00;;;;;;4191011;28;20391;-72
2022/04/28 02:23:49;;;;;;;31.67;24.00;;;33.40;94.60;;;;;;4187212;28;20068;-72
2022/04/28 02:25:58;;;;;;;30.08;23.50;;;33.40;94.30;;;;;;4187656;28;20044;-71
2022/04/28 02:28:03;;;;;;;33.75;23.00;;;33.40;94.10;;;;;;4187858;28;20037;-71
2022/04/28 02:30:08;;;;;;;28.48;22.17;;;33.40;93.90;;;;;;4198044;28;20048;-71
2022/04/28 02:32:18;;;;;;;23.52;21.00;;;33.50;93.90;;;;;;4204492;28;20471;-71
2022/04/28 02:34:23;;;;;;;28.85;21.73;;;33.60;94.00;;;;;;4204409;28;20052;-73
2022/04/28 02:36:28;;;;;;;27.30;20.27;;;33.60;93.80;;;;;;4202354;28;20394;-72
2022/04/28 02:38:36;;;;;;;26.40;21.35;;;33.60;93.60;;;;;;4203382;28;20048;-72
2022/04/28 02:40:45;;;;;;;25.75;20.08;;;33.70;93.50;;;;;;4197867;28;20060;-72
2022/04/28 02:42:49;;;;;;;25.35;19.15;;;33.80;93.30;;;;;;4202125;28;20041;-72
2022/04/28 02:44:56;;;;;;;26.15;20.02;;;33.80;93.10;;;;;;4179402;28;20578;-73
2022/04/28 02:47:01;;;;;;;24.88;19.58;;;33.80;93.00;;;;;;4201487;28;20079;-72
2022/04/28 02:49:07;;;;;;;22.95;19.17;;;33.90;93.10;;;;;;4206540;28;20044;-73
2022/04/28 02:51:15;;;;;;;25.92;19.70;;;33.90;93.00;;;;;;4153306;28;20056;-72
2022/04/28 02:53:21;;;;;;;21.98;19.08;;;34.00;93.00;;;;;;4189139;28;20188;-70
2022/04/28 02:55:44;;;;;;;26.38;20.00;;;34.00;92.80;;;;;;4193027;28;20098;-70
2022/04/28 02:57:53;;;;;;;20.48;17.52;;;34.00;92.60;;;;;;4187044;28;20656;-72
2022/04/28 03:00:05;;;;;;;27.70;17.08;;;34.10;92.20;;;;;;4194149;28;20077;-72
2022/04/28 03:02:20;;;;;;;21.52;17.40;;;34.10;92.20;;;;;;4202688;28;20040;-71
2022/04/28 03:04:27;;;;;;;24.02;16.15;;;34.20;92.20;;;;;;4153823;28;20037;-73
2022/04/28 03:11:09;;;;;;;23.17;17.13;;;34.30;91.80;;;;;;4204374;28;20564;-72
2022/04/28 03:13:17;;;;;;;24.15;17.27;;;34.40;91.80;;;;;;4179635;28;20083;-71
2022/04/28 03:15:25;;;;;;;23.85;16.83;;;34.40;91.80;;;;;;4184926;28;20037;-71
2022/04/28 03:17:30;;;;;;;23.15;16.75;;;34.50;91.80;;;;;;4183883;28;20082;-70
2022/04/28 03:19:37;;;;;;;21.42;16.70;;;34.50;91.70;;;;;;4183555;28;20232;-70
2022/04/28 03:21:43;;;;;;;22.83;17.38;;;34.60;91.70;;;;;;4201083;28;20075;-70
2022/04/28 03:23:51;;;;;;;22.50;16.08;;;34.60;91.50;;;;;;4203211;28;20047;-70
2022/04/28 03:26:12;;;;;;;23.70;17.17;;;34.60;91.60;;;;;;4187034;28;20068;-69
2022/04/28 03:28:17;;;;;;;23.17;16.98;;;34.70;91.10;;;;;;4182536;28;20073;-72
2022/04/28 03:30:24;;;;;;;20.73;17.38;;;34.70;91.10;;;;;;4202096;28;20044;-72
2022/04/28 03:32:51;;;;;;;22.10;15.68;;;34.70;90.80;;;;;;4197425;28;20075;-72
2022/04/28 03:34:56;;;;;;;23.15;15.27;;;34.80;91.00;;;;;;4202650;28;20048;-73
2022/04/28 03:37:02;;;;;;;19.85;15.55;;;34.80;90.90;;;;;;4157886;28;20053;-72
2022/04/28 03:39:11;;;;;;;19.73;15.13;;;34.80;90.80;;;;;;4187279;28;20048;-72
2022/04/28 03:41:19;;;;;;;16.15;12.88;;;34.90;90.90;;;;;;4202573;28;20057;-72
2022/04/28 03:44:04;;;;;;;14.57;11.50;;;35.00;89.10;;;;;;4187067;28;20068;-73
2022/04/28 03:46:23;;;;;;;16.45;13.10;;;35.00;88.90;;;;;;4187061;28;20049;-71
2022/04/28 03:49:00;;;;;;;17.60;13.55;;;35.10;90.10;;;;;;4193860;28;20074;-72
2022/04/28 03:51:23;;;;;;;19.75;13.75;;;35.20;89.40;;;;;;4194279;28;20049;-71
2022/04/28 03:53:38;;;;;;;15.48;13.10;;;35.20;89.40;;;;;;4192340;28;20049;-72
2022/04/28 03:59:12;;;;;;;12.70;11.05;;;35.30;87.80;;;;;;4189521;28;20045;-70
2022/04/28 04:01:58;;;;;;;16.95;11.15;;;35.30;87.50;;;;;;4201330;28;20120;-71
2022/04/28 04:04:34;;;;;;;17.27;11.55;;;35.40;85.60;;;;;;4177252;28;20045;-72
2022/04/28 04:07:43;;;;;;;14.50;11.80;;;35.40;86.80;;;;;;4186525;28;20076;-72
2022/04/28 04:10:10;;;;;;;13.00;11.27;;;35.50;87.20;;;;;;4198253;28;20080;-71
2022/04/28 04:13:06;;;;;;;13.55;10.48;;;35.60;87.40;;;;;;4149926;28;20050;-71
2022/04/28 04:15:23;;;;;;;15.35;10.90;;;35.70;86.70;;;;;;4138417;28;20600;-72
2022/04/28 04:18:14;;;;;;;15.43;11.30;;;35.80;86.00;;;;;;4156014;28;20049;-72
2022/04/28 04:21:00;;;;;;;13.60;10.27;;;35.90;85.90;;;;;;4113615;28;20047;-73
2022/04/28 04:23:06;;;;;;;14.27;11.02;;;35.80;86.20;;;;;;4117466;28;20045;-73
2022/04/28 04:25:13;;;;;;;13.57;10.80;;;35.90;85.90;;;;;;4134059;28;20170;-72
2022/04/28 04:27:21;;;;;;;12.48;10.75;;;35.90;85.70;;;;;;4120848;28;20049;-72
2022/04/28 04:29:40;;;;;;;15.93;10.25;;;35.90;85.50;;;;;;4097332;28;20059;-72
2022/04/28 04:34:23;;;;;;;14.50;11.05;;;36.00;85.20;;;;;;4122535;28;20039;-71
2022/04/28 04:36:30;;;;;;;14.23;10.15;;;36.10;85.00;;;;;;4117964;28;20565;-72
2022/04/28 04:38:37;;;;;;;18.63;10.35;;;36.20;84.00;;;;;;4137370;28;20085;-71
2022/04/28 04:40:42;;;;;;;12.85;9.90;;;36.20;83.90;;;;;;4123107;28;20053;-72
2022/04/28 04:42:49;;;;;;;13.55;11.23;;;36.30;84.40;;;;;;4134555;28;20559;-71
2022/04/28 04:44:55;;;;;;;11.55;9.85;;;36.30;84.00;;;;;;4125072;28;20042;-70
2022/04/28 04:47:04;;;;;;;15.63;10.52;;;36.40;82.60;;;;;;4134478;28;20074;-71
2022/04/28 04:49:30;;;;;;;11.93;10.25;;;36.40;83.70;;;;;;4145259;28;20051;-71
2022/04/28 04:51:57;;;;;;;11.90;10.65;;;36.40;81.90;;;;;;4184531;28;20037;-71
2022/04/28 04:54:14;;;;;;;11.43;10.23;;;36.30;82.40;;;;;;4169751;28;20592;-71
2022/04/28 04:56:21;;;;;;;13.70;9.90;;;36.40;82.80;;;;;;4184604;28;20420;-71
2022/04/28 04:58:28;;;;;;;11.50;9.60;;;36.40;83.30;;;;;;4167238;28;20465;-73
2022/04/28 05:00:34;;;;;;;14.18;10.48;;;36.50;83.30;;;;;;4171256;28;20053;-73
2022/04/28 05:02:53;;;;;;;14.32;9.70;;;36.50;83.20;;;;;;4186812;28;20059;-72
2022/04/28 05:05:12;;;;;;;11.20;9.68;;;36.60;82.90;;;;;;4184146;28;20109;-72
2022/04/28 05:07:30;;;;;;;14.50;10.18;;;36.60;83.50;;;;;;4185178;28;20045;-73
2022/04/28 05:09:37;;;;;;;10.88;9.20;;;36.70;83.70;;;;;;4167846;28;20061;-73
2022/04/28 05:11:44;;;;;;;12.27;9.80;;;36.70;83.00;;;;;;4181676;28;20055;-73
2022/04/28 05:13:56;;;;;;;13.60;10.48;;;36.80;82.60;;;;;;4172618;28;20046;-72
2022/04/28 05:16:02;;;;;;;13.15;10.40;;;36.80;82.30;;;;;;4185984;28;20064;-72
2022/04/28 05:18:20;;;;;;;12.02;9.57;;;36.80;82.20;;;;;;4166267;28;20139;-72
2022/04/28 05:20:30;;;;;;;11.18;9.50;;;36.90;81.90;;;;;;4188537;28;20049;-73
2022/04/28 05:22:49;;;;;;;17.42;10.57;;;36.80;81.70;;;;;;4177848;28;20780;-72
2022/04/28 05:25:10;;;;;;;11.00;9.75;;;36.90;82.00;;;;;;4182938;28;20065;-73
2022/04/28 05:27:34;;;;;;;12.02;9.65;;;36.90;81.30;;;;;;4172289;28;20075;-72
2022/04/28 05:29:53;;;;;;;17.08;9.18;;;37.00;81.20;;;;;;4181861;28;20045;-72
2022/04/28 05:32:10;;;;;;;10.45;8.52;;;37.10;80.40;;;;;;4189343;28;20056;-72
2022/04/28 05:34:26;;;;;;;12.05;9.63;;;37.10;80.20;;;;;;4188896;28;20091;-72
2022/04/28 05:36:37;;;;;;;19.23;9.65;;;37.00;80.40;;;;;;4180496;28;20056;-71
2022/04/28 05:38:44;;;;;;;14.50;8.85;;;37.10;80.40;;;;;;4184886;28;20053;-72
2022/04/28 05:40:48;;;;;;;12.90;8.95;;;37.10;80.30;;;;;;4193743;28;20045;-71
2022/04/28 05:47:35;;;;;;;11.57;8.93;;;36.90;80.90;;;;;;4188454;28;20052;-72
2022/04/28 05:49:42;;;;;;;12.88;9.15;;;37.10;80.90;;;;;;4171171;28;20049;-71
2022/04/28 05:51:48;;;;;;;10.93;8.70;;;37.10;80.70;;;;;;4163720;28;20049;-72
2022/04/28 05:53:57;;;;;;;10.02;8.88;;;37.20;80.40;;;;;;4165793;28;20061;-74
2022/04/28 05:56:05;;;;;;;13.20;8.70;;;37.20;80.00;;;;;;4167028;28;20052;-72
2022/04/28 05:58:19;;;;;;;10.57;8.77;;;37.30;79.80;;;;;;4176774;28;20049;-72
2022/04/28 06:00:43;;;;;;;12.02;8.93;;;37.40;79.80;;;;;;4193417;28;20123;-72
2022/04/28 06:02:49;;;;;;;12.15;9.35;;;37.50;79.50;;;;;;4178088;28;20048;-70
2022/04/28 06:05:04;;;;;;;14.82;9.20;;;37.50;78.90;;;;;;4174452;28;20041;-72
2022/04/28 06:07:10;;;;;;;10.35;8.55;;;37.40;77.90;;;;;;4181394;28;20041;-70
2022/04/28 06:09:23;;;;;;;14.73;9.30;;;37.30;77.80;;;;;;4181534;28;20049;-71
2022/04/28 06:11:28;;;;;;;12.45;9.48;;;37.30;77.90;;;;;;4188803;28;20071;-70
2022/04/28 06:13:33;;;;;;;13.25;9.10;;;37.30;78.10;;;;;;4172495;28;20053;-72
2022/04/28 06:15:52;;;;;;;14.93;9.75;;;37.30;78.40;;;;;;4181689;28;20546;-73
2022/04/28 06:18:09;;;;;;;10.60;9.05;;;37.30;78.60;;;;;;4176799;28;20053;-70
2022/04/28 06:20:13;;;;;;;10.82;8.88;;;37.40;79.20;;;;;;4046559;28;4023928;-72
2022/04/28 06:22:41;;;;;;;13.25;9.68;;;37.50;79.40;;;;;;4187281;28;20059;-71
2022/04/28 06:24:54;;;;;;;11.95;8.60;;;37.60;79.70;;;;;;4172401;28;20042;-70
2022/04/28 06:26:59;;;;;;;10.27;9.05;;;37.60;78.80;;;;;;4173910;28;20406;-72
2022/04/28 06:29:08;;;;;;;11.75;8.80;;;37.70;78.40;;;;;;4180647;28;20065;-72
2022/04/28 06:31:16;;;;;;;9.88;8.50;;;37.80;78.00;;;;;;4191808;28;20033;-72
2022/04/28 06:33:27;;;;;;;10.60;9.50;;;37.80;77.70;;;;;;4190333;28;20607;-71
2022/04/28 06:35:42;;;;;;;12.98;9.05;;;37.80;77.50;;;;;;4195150;28;20132;-71
2022/04/28 06:37:57;;;;;;;12.40;9.25;;;37.80;78.40;;;;;;4175186;28;20181;-70
2022/04/28 06:40:02;;;;;;;;;;;37.70;77.80;;;;;;4196812;28;20083;-71
2022/04/28 06:42:10;;;;;;;13.98;9.18;;;37.70;77.80;;;;;;4173628;28;19948;-70
2022/04/28 06:44:36;;;;;;;11.18;8.88;;;37.70;77.90;;;;;;4192398;28;20045;-71
2022/04/28 06:47:05;;;;;;;13.50;8.65;;;37.80;77.90;;;;;;4190934;28;20068;-71
2022/04/28 06:49:22;;;;;;;9.30;8.38;;;37.90;78.10;;;;;;4189672;28;20446;-71
2022/04/28 06:51:46;;;;;;;11.63;9.50;;;38.00;77.60;;;;;;4198966;28;20045;-71
2022/04/28 06:54:11;;;;;;;10.75;9.20;;;38.00;77.40;;;;;;4199463;28;20053;-70
2022/04/28 06:56:19;;;;;;;12.82;9.25;;;38.00;76.90;;;;;;4178386;28;20073;-71
2022/04/28 06:58:39;;;;;;;12.05;9.18;;;38.00;76.30;;;;;;4179125;28;20084;-71
2022/04/28 07:00:50;;;;;;;10.75;8.95;;;38.00;76.40;;;;;;4171446;28;20080;-70
2022/04/28 07:02:57;;;;;;;15.90;9.00;;;38.00;76.60;;;;;;4178489;28;20091;-72
2022/04/28 07:05:07;;;;;;;13.20;9.52;;;38.10;76.30;;;;;;4195723;28;20499;-71
2022/04/28 07:07:11;;;;;;;11.45;9.10;;;38.10;76.30;;;;;;4172464;28;20423;-71
2022/04/28 07:09:20;;;;;;;13.23;9.07;;;38.20;76.60;;;;;;4175616;28;20128;-71
2022/04/28 07:11:26;;;;;;;12.82;8.80;;;38.30;76.50;;;;;;4189612;28;20048;-70
2022/04/28 07:13:45;;;;;;;11.55;9.25;;;38.30;75.90;;;;;;4175042;28;20260;-69
2022/04/28 07:16:04;;;;;;;11.10;9.05;;;38.30;76.20;;;;;;4196410;28;20131;-69
2022/04/28 07:18:30;;;;;;;13.00;9.15;;;38.40;76.20;;;;;;4191322;28;20052;-70
2022/04/28 07:20:36;;;;;;;10.65;8.77;;;38.40;75.70;;;;;;4190639;28;20114;-71
2022/04/28 07:22:41;;;;;;;11.30;9.55;;;38.40;75.50;;;;;;4190140;28;20508;-72
2022/04/28 07:24:48;;;;;;;14.65;9.63;;;38.40;75.00;;;;;;4180902;28;20041;-71
2022/04/28 07:26:53;;;;;;;14.15;9.32;;;38.30;74.80;;;;;;4190175;28;20088;-70
2022/04/28 07:28:57;;;;;;;12.98;9.75;;;38.30;75.70;;;;;;4183179;28;20045;-70
2022/04/28 07:31:16;;;;;;;12.32;9.55;;;38.30;75.70;;;;;;4188921;28;20122;-70
2022/04/28 07:33:33;;;;;;;13.27;9.30;;;38.30;75.90;;;;;;4187062;28;20084;-72
2022/04/28 07:35:51;;;;;;;13.65;9.10;;;38.20;75.30;;;;;;4192953;28;20178;-71
2022/04/28 07:38:08;;;;;;;11.75;9.25;;;38.10;75.20;;;;;;4193065;28;20094;-71
2022/04/28 07:40:34;;;;;;;12.50;8.95;;;37.90;75.10;;;;;;4189454;28;20056;-71
2022/04/28 07:42:46;;;;;;;13.02;9.43;;;37.80;76.20;;;;;;4185540;28;20052;-72
2022/04/28 07:44:53;;;;;;;12.05;9.60;;;37.60;75.40;;;;;;4173701;28;20044;-70
2022/04/28 07:46:58;;;;;;;15.38;9.98;;;37.50;75.10;;;;;;4187626;28;20397;-69
2022/04/28 07:49:06;;;;;;;14.98;9.70;;;37.40;75.30;;;;;;4176940;28;20046;-70
2022/04/28 07:51:13;;;;;;;12.15;9.23;;;37.40;75.60;;;;;;4170549;28;20072;-71
2022/04/28 07:53:18;;;;;;;11.52;9.40;;;37.30;75.60;;;;;;4174599;28;20129;-70
2022/04/28 07:55:24;;;;;;;11.27;9.60;;;37.30;75.80;;;;;;4182316;28;20492;-69
2022/04/28 07:57:34;;;;;;;11.40;9.35;;;37.20;75.90;;;;;;4172844;28;20079;-70
2022/04/28 07:59:39;;;;;;;12.02;9.63;;;37.20;76.40;;;;;;4186043;28;20037;-71
2022/04/28 08:01:49;;;;;;;12.73;9.88;;;37.20;76.30;;;;;;4175453;28;20041;-71
2022/04/28 08:03:56;;;;;;;15.10;10.23;;;37.30;76.10;;;;;;4188233;28;20124;-71
2022/04/28 08:06:01;;;;;;;14.52;9.77;;;37.20;76.80;;;;;;4179221;28;20219;-71
2022/04/28 08:08:08;;;;;;;17.13;11.30;;;37.20;77.40;;;;;;4175014;28;20045;-70
2022/04/28 08:10:16;;;;;;;24.58;12.07;;;37.10;77.80;;;;;;4188160;28;20041;-70
2022/04/28 08:12:22;;;;;;;17.42;11.63;;;37.10;78.30;;;;;;4176401;28;20049;-71
2022/04/28 08:15:01;;;;;;;16.10;11.57;;;37.10;78.50;;;;;;4161919;28;20045;-71
2022/04/28 08:17:07;;;;;;;19.70;11.73;;;37.00;78.50;;;;;;4142961;28;20114;-71
2022/04/28 08:19:12;;;;;;;16.23;10.68;;;36.90;78.50;;;;;;4145272;28;20053;-71
2022/04/28 08:21:22;;;;;;;22.35;11.45;;;36.80;78.80;;;;;;4134104;28;20054;-70
2022/04/28 08:23:28;;;;;;;17.05;11.55;;;36.80;79.50;;;;;;4143480;28;20043;-71
2022/04/28 08:25:33;;;;;;;15.60;11.32;;;36.80;79.50;;;;;;4157035;28;20076;-71
2022/04/28 08:27:40;;;;;;;13.82;9.30;;;36.90;79.40;;;;;;4144917;28;20129;-71
2022/04/28 08:29:46;;;;;;;15.75;10.18;;;36.80;80.30;;;;;;4169204;28;20065;-70
2022/04/28 08:31:56;;;;;;;22.13;9.88;;;36.70;80.90;;;;;;4169762;28;20046;-71
2022/04/28 08:34:03;;;;;;;18.27;8.77;;;36.40;81.50;;;;;;4146934;28;20048;-69
2022/04/28 08:36:13;;;;;;;11.65;8.65;;;36.20;81.50;;;;;;4153002;28;20053;-69
2022/04/28 08:38:21;;;;;;;17.35;8.38;;;36.10;81.10;;;;;;4157794;28;20149;-70
2022/04/28 08:40:27;;;;;;;21.27;9.68;;;36.00;80.70;;;;;;4153726;28;20101;-69
2022/04/28 08:42:37;;;;;;;20.20;9.30;;;35.80;80.20;;;;;;4168586;28;20042;-70
2022/04/28 08:45:18;;;;;;;15.05;9.30;;;35.80;80.50;;;;;;4153570;28;20484;-72
2022/04/28 08:47:52;;;;;;;16.92;9.70;;;35.80;80.70;;;;;;4151680;28;20038;-71
2022/04/28 08:50:16;;;;;;;13.10;9.48;;;35.80;81.00;;;;;;4162338;28;20049;-70
2022/04/28 08:52:28;;;;;;;17.30;10.38;;;35.70;81.40;;;;;;4178239;28;20082;-70
2022/04/28 08:54:45;;;;;;;17.30;9.75;;;35.70;81.50;;;;;;4170008;28;20053;-71
2022/04/28 08:56:52;;;;;;;15.30;9.93;;;35.60;81.60;;;;;;4182392;28;20052;-71
2022/04/28 08:58:56;;;;;;;17.58;10.20;;;35.60;81.80;;;;;;4190663;28;20527;-71
2022/04/28 09:01:06;;;;;;;14.20;9.93;;;35.60;82.00;;;;;;4180890;28;20055;-70
2022/04/28 09:03:17;;;;;;;16.45;10.25;;;35.50;82.30;;;;;;4186740;28;20475;-72
2022/04/28 09:05:34;;;;;;;16.30;8.95;;;35.50;82.70;;;;;;4194109;28;20063;-72
2022/04/28 09:08:00;;;;;;;15.73;8.90;;;35.50;82.80;;;;;;4193909;28;20036;-72
2022/04/28 09:10:32;;;;;;;11.20;8.50;;;35.40;82.90;;;;;;4177757;28;20037;-74
2022/04/28 09:15:39;;;;;;;16.13;8.35;;;35.30;83.70;;;;;;4192022;28;20469;-71
2022/04/28 09:17:54;;;;;;;16.50;9.18;;;35.20;84.20;;;;;;4179595;28;20051;-71
2022/04/28 09:20:02;;;;;;;13.85;8.45;;;35.20;84.40;;;;;;4145239;28;20424;-71
2022/04/28 09:22:13;;;;;;;18.17;9.10;;;35.10;84.40;;;;;;4175865;28;20071;-70
2022/04/28 09:24:19;;;;;;;14.27;8.55;;;35.10;84.60;;;;;;4177207;28;20123;-71
2022/04/28 09:26:24;;;;;;;20.35;8.70;;;35.00;84.40;;;;;;4174710;28;20120;-71
2022/04/28 09:28:31;;;;;;;15.95;9.77;;;35.00;84.40;;;;;;4178891;28;20061;-71
2022/04/28 09:30:45;;;;;;;17.98;9.38;;;35.00;84.60;;;;;;4179111;28;20052;-71
2022/04/28 09:33:12;;;;;;;20.45;9.77;;;34.90;84.50;;;;;;4175372;28;20037;-72
2022/04/28 09:35:49;;;;;;;13.70;9.20;;;34.90;84.70;;;;;;4176693;28;20140;-71
2022/04/28 09:38:10;;;;;;;15.57;9.80;;;34.80;85.00;;;;;;4199166;28;20040;-70
2022/04/28 09:42:53;;;;;;;16.75;9.95;;;34.80;85.40;;;;;;4178196;28;20049;-70
2022/04/28 09:45:07;;;;;;;20.42;9.50;;;34.80;85.40;;;;;;4180564;28;20049;-70
2022/04/28 09:47:20;;;;;;;19.50;9.50;;;34.80;85.80;;;;;;4181280;28;20060;-74
2022/04/28 09:49:29;;;;;;;16.95;10.43;;;34.80;86.40;;;;;;4182904;28;20045;-73
2022/04/28 09:51:47;;;;;;;13.63;10.52;;;34.80;86.40;;;;;;4187653;28;20053;-72
2022/04/28 09:53:59;;;;;;;13.10;9.93;;;34.80;86.20;;;;;;4172437;28;20060;-72
2022/04/28 09:56:28;;;;;;;13.00;9.80;;;34.70;86.20;;;;;;4182376;28;20055;-71
2022/04/28 09:58:54;;;;;;;13.02;7.95;;;34.70;86.80;;;;;;4182368;28;20036;-71
2022/04/28 10:01:02;;;;;;;10.85;7.93;;;34.70;87.50;;;;;;4182968;28;20064;-71
2022/04/28 10:03:12;;;;;;;11.93;7.45;;;34.70;87.90;;;;;;4180225;28;20068;-71
2022/04/28 10:05:21;;;;;;;13.13;8.13;;;34.70;88.40;;;;;;4182711;28;20045;-71
2022/04/28 10:07:36;;;;;;;11.13;7.63;;;34.50;88.60;;;;;;4176659;28;20052;-71
2022/04/28 10:09:45;;;;;;;12.60;9.30;;;34.50;88.90;;;;;;4183090;28;20049;-70
2022/04/28 10:11:52;;;;;;;16.30;9.82;;;34.50;89.40;;;;;;4183765;28;20053;-72
2022/04/28 10:14:04;;;;;;;11.15;8.73;;;34.50;89.60;;;;;;4182678;28;20041;-68
2022/04/28 10:16:12;;;;;;;11.85;8.73;;;34.50;89.70;;;;;;4199638;28;20040;-69
2022/04/28 10:18:19;;;;;;;19.58;9.68;;;34.50;89.60;;;;;;4184903;28;20077;-70
2022/04/28 10:20:50;;;;;;;13.10;9.38;;;34.40;89.10;;;;;;4182864;28;20056;-69
2022/04/28 10:23:00;;;;;;;14.93;10.02;;;34.40;89.20;;;;;;4193359;28;20123;-70
2022/04/28 10:32:57;;;;;;;15.15;10.10;;;34.30;89.00;;;;;;4196019;28;20048;-71
2022/04/28 10:35:08;;;;;;;14.63;10.45;;;34.30;88.70;;;;;;4180569;28;20147;-72
2022/04/28 10:37:16;;;;;;;13.38;10.05;;;34.20;88.40;;;;;;4208397;28;20100;-70
2022/04/28 10:39:40;;;;;;;17.23;10.70;;;34.10;88.40;;;;;;4196717;28;20689;-70
2022/04/28 10:41:45;;;;;;;13.10;10.75;;;34.20;88.50;;;;;;4200512;28;20051;-70
2022/04/28 10:43:54;;;;;;;13.63;11.10;;;34.10;88.60;;;;;;4210678;28;20091;-70
2022/04/28 10:46:34;;;;;;;16.70;11.60;;;34.10;88.90;;;;;;4189002;28;20513;-69
2022/04/28 10:48:43;;;;;;;17.58;11.50;;;34.10;89.10;;;;;;4203182;28;20044;-70
2022/04/28 10:51:05;;;;;;;14.90;11.40;;;34.00;89.20;;;;;;4192252;28;20033;-70
2022/04/28 10:53:10;;;;;;;18.20;12.90;;;34.00;89.30;;;;;;4198877;28;20051;-70
2022/04/28 10:55:15;;;;;;;18.15;11.45;;;34.00;89.30;;;;;;4185449;28;20064;-71
2022/04/28 10:57:36;;;;;;;16.73;12.07;;;34.10;89.50;;;;;;4184858;28;20150;-71
2022/04/28 10:59:41;;;;;;;17.30;12.93;;;34.10;89.50;;;;;;4180218;28;20475;-71
2022/04/28 11:01:47;;;;;;;16.90;13.02;;;34.00;90.00;;;;;;4183779;28;20059;-71
2022/04/28 11:03:58;;;;;;;18.00;12.48;;;34.00;90.20;;;;;;4198369;28;20413;-70
2022/04/28 11:06:13;;;;;;;18.38;12.60;;;34.00;90.40;;;;;;4197226;28;20076;-70
2022/04/28 11:08:25;;;;;;;17.25;11.48;;;33.90;90.30;;;;;;4194268;28;20048;-70
2022/04/28 11:10:50;;;;;;;15.43;11.10;;;33.80;90.10;;;;;;4208869;28;20135;-70
2022/04/28 11:12:55;;;;;;;15.13;10.52;;;33.80;89.70;;;;;;4195035;28;20053;-69
2022/04/28 11:15:03;;;;;;;12.55;10.45;;;33.80;89.20;;;;;;4209013;28;20051;-71
2022/04/28 11:17:14;;;;;;;14.27;10.82;;;33.70;89.10;;;;;;4193821;28;20060;-70
2022/04/28 11:19:18;;;;;;;12.00;10.68;;;33.60;89.20;;;;;;4192656;28;20080;-70
2022/04/28 11:21:23;;;;;;;14.55;10.55;;;33.40;88.70;;;;;;4188520;28;20090;-72
2022/04/28 11:23:34;;;;;;;12.30;9.77;;;33.40;88.30;;;;;;4196106;28;20048;-71
2022/04/28 11:25:51;;;;;;;14.32;9.23;;;33.40;87.90;;;;;;4176821;28;20052;-69
2022/04/28 11:27:57;;;;;;;12.65;9.27;;;33.30;87.30;;;;;;4184042;28;20049;-69
2022/04/28 11:30:06;;;;;;;13.70;9.27;;;33.30;87.20;;;;;;4202994;28;20044;-71
2022/04/28 11:32:10;;;;;;;13.35;8.80;;;33.30;87.20;;;;;;4198032;28;20049;-70
2022/04/28 11:34:15;;;;;;;11.95;8.25;;;33.30;86.80;;;;;;4201730;28;20048;-71
2022/04/28 11:36:25;;;;;;;10.70;7.90;;;33.20;86.30;;;;;;4151055;28;20085;-70
2022/04/28 11:38:31;;;;;;;14.00;8.60;;;33.20;86.20;;;;;;4195901;28;20044;-72
2022/04/28 11:40:37;;;;;;;13.75;8.10;;;33.10;86.10;;;;;;4191158;28;20060;-69
2022/04/28 11:42:45;;;;;;;13.77;8.73;;;33.20;86.10;;;;;;4197214;28;20052;-71
2022/04/28 11:44:57;;;;;;;12.25;8.75;;;33.10;85.80;;;;;;4195992;28;20418;-70
2022/04/28 11:47:02;;;;;;;13.77;8.25;;;33.00;85.90;;;;;;4198871;28;20578;-72
2022/04/28 11:49:11;;;;;;;11.73;8.30;;;33.00;85.80;;;;;;4198805;28;20049;-72